sensor_id;sensor_type;location;lat;lon;timestamp;temperature;humidity
13488;DHT22;6816;48.506;9.050;2022-10-17T00:01:40;13.70;99.90
13488;DHT22;6816;48.506;9.050;2022-10-17T00:04:40;13.70;99.90
13488;DHT22;6816;48.506;9.050;2022-10-17T00:07:41;13.70;99.90
13488;DHT22;6816;48.506;9.050;2022-10-17T00:10:42;13.60;99.90
13488;DHT22;6816;48.506;9.050;2022-10-17T00:13:43;13.60;99.90
13488;DHT22;6816;48.506;9.050;2022-10-17T00:16:43;13.60;99.90
13488;DHT22;6816;48.506;9.050;2022-10-17T00:19:44;13.50;99.90
13488;DHT22;6816;48.506;9.050;2022-10-17T00:22:45;13.60;99.90
13488;DHT22;6816;48.506;9.050;2022-10-17T00:25:45;13.50;99.90
13488;DHT22;6816;48.506;9.050;2022-10-17T00:28:47;13.50;99.90
13488;DHT22;6816;48.506;9.050;2022-10-17T00:31:48;13.40;99.90
13488;DHT22;6816;48.506;9.050;2022-10-17T00:34:49;13.50;99.90
13488;DHT22;6816;48.506;9.050;2022-10-17T00:37:49;13.40;99.90
13488;DHT22;6816;48.506;9.050;2022-10-17T00:40:50;13.40;99.90
13488;DHT22;6816;48.506;9.050;2022-10-17T00:47:19;13.30;99.90
13488;DHT22;6816;48.506;9.050;2022-10-17T00:50:21;13.30;99.90
13488;DHT22;6816;48.506;9.050;2022-10-17T00:53:23;13.20;99.90
13488;DHT22;6816;48.506;9.050;2022-10-17T00:56:23;13.20;99.90
13488;DHT22;6816;48.506;9.050;2022-10-17T00:59:25;13.30;99.90
13488;DHT22;6816;48.506;9.050;2022-10-17T01:02:26;13.20;99.90
13488;DHT22;6816;48.506;9.050;2022-10-17T01:05:26;13.30;99.90
13488;DHT22;6816;48.506;9.050;2022-10-17T01:08:27;13.10;99.90
13488;DHT22;6816;48.506;9.050;2022-10-17T01:14:37;13.20;99.90
13488;DHT22;6816;48.506;9.050;2022-10-17T01:18:12;13.00;99.90
13488;DHT22;6816;48.506;9.050;2022-10-17T01:24:47;12.90;99.90
13488;DHT22;6816;48.506;9.050;2022-10-17T01:27:56;12.90;99.90
13488;DHT22;6816;48.506;9.050;2022-10-17T01:31:05;12.90;99.90
13488;DHT22;6816;48.506;9.050;2022-10-17T01:34:15;12.80;99.90
13488;DHT22;6816;48.506;9.050;2022-10-17T01:40:32;12.80;99.90
13488;DHT22;6816;48.506;9.050;2022-10-17T01:43:38;12.80;99.90
13488;DHT22;6816;48.506;9.050;2022-10-17T01:46:42;12.80;99.90
13488;DHT22;6816;48.506;9.050;2022-10-17T01:49:45;12.70;99.90
13488;DHT22;6816;48.506;9.050;2022-10-17T01:52:51;12.80;99.90
13488;DHT22;6816;48.506;9.050;2022-10-17T01:55:55;12.80;99.90
13488;DHT22;6816;48.506;9.050;2022-10-17T01:59:05;12.80;99.90
13488;DHT22;6816;48.506;9.050;2022-10-17T02:02:07;12.70;99.90
13488;DHT22;6816;48.506;9.050;2022-10-17T02:05:09;12.80;99.90
13488;DHT22;6816;48.506;9.050;2022-10-17T02:08:10;12.70;99.90
13488;DHT22;6816;48.506;9.050;2022-10-17T02:11:23;12.70;99.90
13488;DHT22;6816;48.506;9.050;2022-10-17T02:21:50;12.60;99.90
13488;DHT22;6816;48.506;9.050;2022-10-17T02:31:59;12.60;99.90
13488;DHT22;6816;48.506;9.050;2022-10-17T02:35:05;12.50;99.90
13488;DHT22;6816;48.506;9.050;2022-10-17T02:38:10;12.50;99.90
13488;DHT22;6816;48.506;9.050;2022-10-17T02:41:15;12.50;99.90
13488;DHT22;6816;48.506;9.050;2022-10-17T02:44:17;12.50;99.90
13488;DHT22;6816;48.506;9.050;2022-10-17T02:48:17;12.40;99.90
13488;DHT22;6816;48.506;9.050;2022-10-17T02:54:35;12.30;99.90
13488;DHT22;6816;48.506;9.050;2022-10-17T02:57:40;12.30;99.90
13488;DHT22;6816;48.506;9.050;2022-10-17T03:00:42;12.30;99.90
13488;DHT22;6816;48.506;9.050;2022-10-17T03:03:43;12.40;99.90
13488;DHT22;6816;48.506;9.050;2022-10-17T03:06:45;12.30;99.90
13488;DHT22;6816;48.506;9.050;2022-10-17T03:09:46;12.20;99.90
13488;DHT22;6816;48.506;9.050;2022-10-17T03:12:46;12.20;99.90
13488;DHT22;6816;48.506;9.050;2022-10-17T03:15:47;12.20;99.90
13488;DHT22;6816;48.506;9.050;2022-10-17T03:18:48;12.20;99.90
13488;DHT22;6816;48.506;9.050;2022-10-17T03:21:48;12.10;99.90
13488;DHT22;6816;48.506;9.050;2022-10-17T03:24:49;12.20;99.90
13488;DHT22;6816;48.506;9.050;2022-10-17T03:27:49;12.10;99.90
13488;DHT22;6816;48.506;9.050;2022-10-17T03:30:50;12.10;99.90
13488;DHT22;6816;48.506;9.050;2022-10-17T03:33:51;12.00;99.90
13488;DHT22;6816;48.506;9.050;2022-10-17T03:36:51;12.00;99.90
13488;DHT22;6816;48.506;9.050;2022-10-17T03:39:52;12.10;99.90
13488;DHT22;6816;48.506;9.050;2022-10-17T03:42:52;12.00;99.90
13488;DHT22;6816;48.506;9.050;2022-10-17T03:45:53;12.00;99.90
13488;DHT22;6816;48.506;9.050;2022-10-17T03:48:54;12.00;99.90
13488;DHT22;6816;48.506;9.050;2022-10-17T03:51:54;11.90;99.90
13488;DHT22;6816;48.506;9.050;2022-10-17T03:54:55;11.90;99.90
13488;DHT22;6816;48.506;9.050;2022-10-17T03:57:55;11.90;99.90
13488;DHT22;6816;48.506;9.050;2022-10-17T04:00:56;12.10;99.90
13488;DHT22;6816;48.506;9.050;2022-10-17T04:03:57;11.90;99.90
13488;DHT22;6816;48.506;9.050;2022-10-17T04:06:57;11.90;99.90
13488;DHT22;6816;48.506;9.050;2022-10-17T04:09:58;11.90;99.90
13488;DHT22;6816;48.506;9.050;2022-10-17T04:12:58;11.90;99.90
13488;DHT22;6816;48.506;9.050;2022-10-17T04:16:02;11.90;99.90
13488;DHT22;6816;48.506;9.050;2022-10-17T04:19:04;12.00;99.90
13488;DHT22;6816;48.506;9.050;2022-10-17T04:22:04;11.90;99.90
13488;DHT22;6816;48.506;9.050;2022-10-17T04:25:07;11.90;99.90
13488;DHT22;6816;48.506;9.050;2022-10-17T04:28:08;11.80;99.90
13488;DHT22;6816;48.506;9.050;2022-10-17T04:31:12;11.80;99.90
13488;DHT22;6816;48.506;9.050;2022-10-17T04:34:13;11.80;99.90
13488;DHT22;6816;48.506;9.050;2022-10-17T04:37:14;11.80;99.90
13488;DHT22;6816;48.506;9.050;2022-10-17T04:40:14;11.80;99.90
13488;DHT22;6816;48.506;9.050;2022-10-17T04:43:15;11.80;99.90
13488;DHT22;6816;48.506;9.050;2022-10-17T04:46:16;11.80;99.90
13488;DHT22;6816;48.506;9.050;2022-10-17T04:49:17;11.80;99.90
13488;DHT22;6816;48.506;9.050;2022-10-17T04:52:17;11.70;99.90
13488;DHT22;6816;48.506;9.050;2022-10-17T04:55:18;11.80;99.90
13488;DHT22;6816;48.506;9.050;2022-10-17T04:58:18;11.60;99.90
13488;DHT22;6816;48.506;9.050;2022-10-17T05:01:21;11.70;99.90
13488;DHT22;6816;48.506;9.050;2022-10-17T05:04:21;11.60;99.90
13488;DHT22;6816;48.506;9.050;2022-10-17T05:07:22;11.50;99.90
13488;DHT22;6816;48.506;9.050;2022-10-17T05:10:23;11.50;99.90
13488;DHT22;6816;48.506;9.050;2022-10-17T05:13:24;11.50;99.90
13488;DHT22;6816;48.506;9.050;2022-10-17T05:16:26;11.50;99.90
13488;DHT22;6816;48.506;9.050;2022-10-17T05:19:27;11.50;99.90
13488;DHT22;6816;48.506;9.050;2022-10-17T05:22:27;11.50;99.90
13488;DHT22;6816;48.506;9.050;2022-10-17T05:25:28;11.50;99.90
13488;DHT22;6816;48.506;9.050;2022-10-17T05:28:29;11.50;99.90
13488;DHT22;6816;48.506;9.050;2022-10-17T05:31:30;11.50;99.90
13488;DHT22;6816;48.506;9.050;2022-10-17T05:34:32;11.60;99.90
13488;DHT22;6816;48.506;9.050;2022-10-17T05:37:32;11.50;99.90
13488;DHT22;6816;48.506;9.050;2022-10-17T05:40:33;11.60;99.90
13488;DHT22;6816;48.506;9.050;2022-10-17T05:43:34;11.60;99.90
13488;DHT22;6816;48.506;9.050;2022-10-17T05:46:34;11.60;99.90
13488;DHT22;6816;48.506;9.050;2022-10-17T05:49:35;11.60;99.90
13488;DHT22;6816;48.506;9.050;2022-10-17T05:52:36;11.60;99.90
13488;DHT22;6816;48.506;9.050;2022-10-17T05:55:36;11.60;99.90
13488;DHT22;6816;48.506;9.050;2022-10-17T05:58:41;11.60;99.90
13488;DHT22;6816;48.506;9.050;2022-10-17T06:01:42;11.60;99.90
13488;DHT22;6816;48.506;9.050;2022-10-17T06:04:43;11.50;99.90
13488;DHT22;6816;48.506;9.050;2022-10-17T06:07:45;11.60;99.90
13488;DHT22;6816;48.506;9.050;2022-10-17T06:10:48;11.70;99.90
13488;DHT22;6816;48.506;9.050;2022-10-17T06:13:49;11.60;99.90
13488;DHT22;6816;48.506;9.050;2022-10-17T06:16:50;11.60;99.90
13488;DHT22;6816;48.506;9.050;2022-10-17T06:19:50;11.60;99.90
13488;DHT22;6816;48.506;9.050;2022-10-17T06:22:51;11.70;99.90
13488;DHT22;6816;48.506;9.050;2022-10-17T06:25:51;11.70;99.90
13488;DHT22;6816;48.506;9.050;2022-10-17T06:28:53;11.80;99.90
13488;DHT22;6816;48.506;9.050;2022-10-17T06:31:54;11.80;99.90
13488;DHT22;6816;48.506;9.050;2022-10-17T06:34:54;11.80;99.90
13488;DHT22;6816;48.506;9.050;2022-10-17T06:37:55;12.00;99.90
13488;DHT22;6816;48.506;9.050;2022-10-17T06:41:25;11.90;99.90
13488;DHT22;6816;48.506;9.050;2022-10-17T06:44:26;11.90;99.90
13488;DHT22;6816;48.506;9.050;2022-10-17T06:47:30;11.90;99.90
13488;DHT22;6816;48.506;9.050;2022-10-17T06:50:31;11.90;99.90
13488;DHT22;6816;48.506;9.050;2022-10-17T06:53:33;11.90;99.90
13488;DHT22;6816;48.506;9.050;2022-10-17T06:56:34;11.90;99.90
13488;DHT22;6816;48.506;9.050;2022-10-17T06:59:34;12.00;99.90
13488;DHT22;6816;48.506;9.050;2022-10-17T07:02:35;12.00;99.90
13488;DHT22;6816;48.506;9.050;2022-10-17T07:05:36;12.10;99.90
13488;DHT22;6816;48.506;9.050;2022-10-17T07:08:37;12.10;99.90
13488;DHT22;6816;48.506;9.050;2022-10-17T07:11:37;12.10;99.90
13488;DHT22;6816;48.506;9.050;2022-10-17T07:14:39;12.20;99.90
13488;DHT22;6816;48.506;9.050;2022-10-17T07:17:40;12.20;99.90
13488;DHT22;6816;48.506;9.050;2022-10-17T07:20:40;12.20;99.90
13488;DHT22;6816;48.506;9.050;2022-10-17T07:23:41;12.30;99.90
13488;DHT22;6816;48.506;9.050;2022-10-17T07:26:41;12.40;99.90
13488;DHT22;6816;48.506;9.050;2022-10-17T07:29:42;12.50;99.90
13488;DHT22;6816;48.506;9.050;2022-10-17T07:32:46;12.70;99.90
13488;DHT22;6816;48.506;9.050;2022-10-17T07:35:46;12.70;99.90
13488;DHT22;6816;48.506;9.050;2022-10-17T07:38:47;12.80;99.90
13488;DHT22;6816;48.506;9.050;2022-10-17T07:41:48;12.90;99.90
13488;DHT22;6816;48.506;9.050;2022-10-17T07:44:50;13.00;99.90
13488;DHT22;6816;48.506;9.050;2022-10-17T07:47:50;13.10;99.90
13488;DHT22;6816;48.506;9.050;2022-10-17T07:50:51;13.30;99.90
13488;DHT22;6816;48.506;9.050;2022-10-17T07:53:51;13.40;99.90
13488;DHT22;6816;48.506;9.050;2022-10-17T07:56:52;13.50;99.90
13488;DHT22;6816;48.506;9.050;2022-10-17T07:59:53;13.60;99.90
13488;DHT22;6816;48.506;9.050;2022-10-17T08:02:53;13.70;99.90
13488;DHT22;6816;48.506;9.050;2022-10-17T08:05:58;13.80;99.90
13488;DHT22;6816;48.506;9.050;2022-10-17T08:08:59;14.00;99.90
13488;DHT22;6816;48.506;9.050;2022-10-17T08:12:01;14.10;99.90
13488;DHT22;6816;48.506;9.050;2022-10-17T08:15:02;14.20;99.90
13488;DHT22;6816;48.506;9.050;2022-10-17T08:18:03;14.30;99.90
13488;DHT22;6816;48.506;9.050;2022-10-17T08:21:04;14.50;99.90
13488;DHT22;6816;48.506;9.050;2022-10-17T08:24:08;14.60;99.90
13488;DHT22;6816;48.506;9.050;2022-10-17T08:27:09;14.70;99.90
13488;DHT22;6816;48.506;9.050;2022-10-17T08:30:12;14.80;99.90
13488;DHT22;6816;48.506;9.050;2022-10-17T08:33:13;15.00;99.90
13488;DHT22;6816;48.506;9.050;2022-10-17T08:36:17;15.00;99.90
13488;DHT22;6816;48.506;9.050;2022-10-17T08:39:17;15.10;99.90
13488;DHT22;6816;48.506;9.050;2022-10-17T08:45:48;15.30;99.90
13488;DHT22;6816;48.506;9.050;2022-10-17T08:48:51;15.40;99.90
13488;DHT22;6816;48.506;9.050;2022-10-17T08:51:58;15.70;99.90
13488;DHT22;6816;48.506;9.050;2022-10-17T08:55:01;15.60;99.90
13488;DHT22;6816;48.506;9.050;2022-10-17T08:58:02;15.70;99.90
13488;DHT22;6816;48.506;9.050;2022-10-17T09:08:45;16.20;99.90
13488;DHT22;6816;48.506;9.050;2022-10-17T09:14:53;16.50;99.90
13488;DHT22;6816;48.506;9.050;2022-10-17T09:18:06;16.60;99.90
13488;DHT22;6816;48.506;9.050;2022-10-17T09:21:18;16.80;99.90
13488;DHT22;6816;48.506;9.050;2022-10-17T09:28:10;17.20;99.90
13488;DHT22;6816;48.506;9.050;2022-10-17T09:34:18;17.50;99.90
13488;DHT22;6816;48.506;9.050;2022-10-17T09:37:23;17.70;99.90
13488;DHT22;6816;48.506;9.050;2022-10-17T09:40:31;17.90;99.90
13488;DHT22;6816;48.506;9.050;2022-10-17T09:43:32;18.10;99.90
13488;DHT22;6816;48.506;9.050;2022-10-17T09:46:37;18.30;99.90
13488;DHT22;6816;48.506;9.050;2022-10-17T09:49:40;18.50;99.90
13488;DHT22;6816;48.506;9.050;2022-10-17T09:52:42;18.70;99.90
13488;DHT22;6816;48.506;9.050;2022-10-17T09:55:52;19.00;99.90
13488;DHT22;6816;48.506;9.050;2022-10-17T09:58:56;19.20;99.90
13488;DHT22;6816;48.506;9.050;2022-10-17T10:02:24;19.30;99.90
13488;DHT22;6816;48.506;9.050;2022-10-17T10:05:25;19.60;99.90
13488;DHT22;6816;48.506;9.050;2022-10-17T10:08:30;19.80;99.90
13488;DHT22;6816;48.506;9.050;2022-10-17T10:11:49;20.00;99.90
13488;DHT22;6816;48.506;9.050;2022-10-17T10:14:50;20.20;99.90
13488;DHT22;6816;48.506;9.050;2022-10-17T10:17:51;20.30;99.90
13488;DHT22;6816;48.506;9.050;2022-10-17T10:21:14;20.50;99.90
13488;DHT22;6816;48.506;9.050;2022-10-17T10:24:15;20.70;99.90
13488;DHT22;6816;48.506;9.050;2022-10-17T10:27:17;20.90;99.90
13488;DHT22;6816;48.506;9.050;2022-10-17T10:30:23;21.10;99.90
13488;DHT22;6816;48.506;9.050;2022-10-17T10:33:27;21.30;99.90
13488;DHT22;6816;48.506;9.050;2022-10-17T10:40:34;21.60;99.90
13488;DHT22;6816;48.506;9.050;2022-10-17T10:43:41;21.80;99.90
13488;DHT22;6816;48.506;9.050;2022-10-17T10:46:42;22.00;99.90
13488;DHT22;6816;48.506;9.050;2022-10-17T10:49:43;22.20;99.90
13488;DHT22;6816;48.506;9.050;2022-10-17T10:53:01;22.30;99.90
13488;DHT22;6816;48.506;9.050;2022-10-17T10:56:36;22.50;99.90
13488;DHT22;6816;48.506;9.050;2022-10-17T10:59:58;22.80;99.70
13488;DHT22;6816;48.506;9.050;2022-10-17T11:06:36;23.20;99.90
13488;DHT22;6816;48.506;9.050;2022-10-17T11:09:56;23.30;99.90
13488;DHT22;6816;48.506;9.050;2022-10-17T11:13:20;23.50;98.60
13488;DHT22;6816;48.506;9.050;2022-10-17T11:16:37;23.60;98.10
13488;DHT22;6816;48.506;9.050;2022-10-17T11:23:17;23.70;98.20
13488;DHT22;6816;48.506;9.050;2022-10-17T11:26:34;23.80;98.40
13488;DHT22;6816;48.506;9.050;2022-10-17T11:29:39;23.90;98.60
13488;DHT22;6816;48.506;9.050;2022-10-17T11:32:54;24.00;99.00
13488;DHT22;6816;48.506;9.050;2022-10-17T11:36:01;24.20;97.30
13488;DHT22;6816;48.506;9.050;2022-10-17T11:39:27;24.40;99.10
13488;DHT22;6816;48.506;9.050;2022-10-17T11:42:31;24.60;99.00
13488;DHT22;6816;48.506;9.050;2022-10-17T11:45:38;24.90;99.20
13488;DHT22;6816;48.506;9.050;2022-10-17T11:48:50;25.20;99.80
13488;DHT22;6816;48.506;9.050;2022-10-17T11:51:59;25.60;99.90
13488;DHT22;6816;48.506;9.050;2022-10-17T11:55:09;26.10;99.10
13488;DHT22;6816;48.506;9.050;2022-10-17T12:01:43;27.10;98.20
13488;DHT22;6816;48.506;9.050;2022-10-17T12:08:35;27.90;94.70
13488;DHT22;6816;48.506;9.050;2022-10-17T12:15:25;28.20;91.70
13488;DHT22;6816;48.506;9.050;2022-10-17T12:18:16;28.30;93.90
13488;DHT22;6816;48.506;9.050;2022-10-17T12:21:17;28.40;92.70
13488;DHT22;6816;48.506;9.050;2022-10-17T12:24:36;28.40;91.60
13488;DHT22;6816;48.506;9.050;2022-10-17T12:27:42;28.30;87.30
13488;DHT22;6816;48.506;9.050;2022-10-17T12:34:16;28.10;84.30
13488;DHT22;6816;48.506;9.050;2022-10-17T12:38:14;28.10;87.00
13488;DHT22;6816;48.506;9.050;2022-10-17T12:41:06;28.10;81.20
13488;DHT22;6816;48.506;9.050;2022-10-17T12:47:35;28.20;82.80
13488;DHT22;6816;48.506;9.050;2022-10-17T12:51:06;28.30;78.70
13488;DHT22;6816;48.506;9.050;2022-10-17T12:54:12;28.30;76.60
13488;DHT22;6816;48.506;9.050;2022-10-17T12:58:04;28.30;81.50
13488;DHT22;6816;48.506;9.050;2022-10-17T13:00:47;28.20;79.80
13488;DHT22;6816;48.506;9.050;2022-10-17T13:03:49;28.10;79.20
13488;DHT22;6816;48.506;9.050;2022-10-17T13:06:54;28.00;81.10
13488;DHT22;6816;48.506;9.050;2022-10-17T13:09:56;28.00;80.60
13488;DHT22;6816;48.506;9.050;2022-10-17T13:13:19;28.00;80.40
13488;DHT22;6816;48.506;9.050;2022-10-17T13:19:42;28.00;75.80
13488;DHT22;6816;48.506;9.050;2022-10-17T13:22:44;28.00;76.10
13488;DHT22;6816;48.506;9.050;2022-10-17T13:25:45;28.00;81.00
13488;DHT22;6816;48.506;9.050;2022-10-17T13:29:03;28.10;81.00
13488;DHT22;6816;48.506;9.050;2022-10-17T13:32:05;28.00;76.00
13488;DHT22;6816;48.506;9.050;2022-10-17T13:35:21;28.10;80.60
13488;DHT22;6816;48.506;9.050;2022-10-17T13:38:26;28.00;74.80
13488;DHT22;6816;48.506;9.050;2022-10-17T13:41:28;28.00;78.70
13488;DHT22;6816;48.506;9.050;2022-10-17T13:44:33;27.90;78.30
13488;DHT22;6816;48.506;9.050;2022-10-17T13:47:36;27.90;78.00
13488;DHT22;6816;48.506;9.050;2022-10-17T13:50:40;27.70;76.00
13488;DHT22;6816;48.506;9.050;2022-10-17T13:53:41;27.60;77.30
13488;DHT22;6816;48.506;9.050;2022-10-17T13:56:43;27.60;77.60
13488;DHT22;6816;48.506;9.050;2022-10-17T13:59:46;27.40;77.20
13488;DHT22;6816;48.506;9.050;2022-10-17T14:02:48;27.30;77.10
13488;DHT22;6816;48.506;9.050;2022-10-17T14:06:03;27.20;77.10
13488;DHT22;6816;48.506;9.050;2022-10-17T14:09:14;27.00;73.20
13488;DHT22;6816;48.506;9.050;2022-10-17T14:12:18;26.90;76.20
13488;DHT22;6816;48.506;9.050;2022-10-17T14:15:22;26.80;76.50
13488;DHT22;6816;48.506;9.050;2022-10-17T14:18:27;26.70;77.00
13488;DHT22;6816;48.506;9.050;2022-10-17T14:21:28;26.60;77.00
13488;DHT22;6816;48.506;9.050;2022-10-17T14:24:29;26.40;77.70
13488;DHT22;6816;48.506;9.050;2022-10-17T14:27:36;26.30;78.00
13488;DHT22;6816;48.506;9.050;2022-10-17T14:30:46;26.30;77.50
13488;DHT22;6816;48.506;9.050;2022-10-17T14:33:48;26.20;76.60
13488;DHT22;6816;48.506;9.050;2022-10-17T14:36:51;26.10;78.30
13488;DHT22;6816;48.506;9.050;2022-10-17T14:39:52;26.10;78.50
13488;DHT22;6816;48.506;9.050;2022-10-17T14:42:56;26.00;78.70
13488;DHT22;6816;48.506;9.050;2022-10-17T14:45:59;26.00;78.40
13488;DHT22;6816;48.506;9.050;2022-10-17T14:49:14;25.90;79.10
13488;DHT22;6816;48.506;9.050;2022-10-17T14:55:24;25.80;79.60
13488;DHT22;6816;48.506;9.050;2022-10-17T14:58:31;25.80;77.30
13488;DHT22;6816;48.506;9.050;2022-10-17T15:01:33;25.70;78.30
13488;DHT22;6816;48.506;9.050;2022-10-17T15:04:34;25.60;79.80
13488;DHT22;6816;48.506;9.050;2022-10-17T15:07:34;25.60;79.70
13488;DHT22;6816;48.506;9.050;2022-10-17T15:10:36;25.50;79.50
13488;DHT22;6816;48.506;9.050;2022-10-17T15:13:37;25.40;79.40
13488;DHT22;6816;48.506;9.050;2022-10-17T15:16:38;25.40;80.00
13488;DHT22;6816;48.506;9.050;2022-10-17T15:19:39;25.30;80.00
13488;DHT22;6816;48.506;9.050;2022-10-17T15:22:39;25.30;80.20
13488;DHT22;6816;48.506;9.050;2022-10-17T15:25:40;25.20;80.40
13488;DHT22;6816;48.506;9.050;2022-10-17T15:28:41;25.20;80.10
13488;DHT22;6816;48.506;9.050;2022-10-17T15:31:42;25.20;80.20
13488;DHT22;6816;48.506;9.050;2022-10-17T15:34:42;25.10;80.30
13488;DHT22;6816;48.506;9.050;2022-10-17T15:37:43;25.00;80.50
13488;DHT22;6816;48.506;9.050;2022-10-17T15:40:46;25.00;80.90
13488;DHT22;6816;48.506;9.050;2022-10-17T15:43:50;24.90;81.10
13488;DHT22;6816;48.506;9.050;2022-10-17T15:46:50;24.90;81.30
13488;DHT22;6816;48.506;9.050;2022-10-17T15:49:51;24.80;81.70
13488;DHT22;6816;48.506;9.050;2022-10-17T15:52:52;24.70;82.90
13488;DHT22;6816;48.506;9.050;2022-10-17T15:55:53;24.60;82.30
13488;DHT22;6816;48.506;9.050;2022-10-17T15:58:53;24.50;82.50
13488;DHT22;6816;48.506;9.050;2022-10-17T16:01:54;24.40;82.70
13488;DHT22;6816;48.506;9.050;2022-10-17T16:04:55;24.30;82.70
13488;DHT22;6816;48.506;9.050;2022-10-17T16:07:56;24.10;82.80
13488;DHT22;6816;48.506;9.050;2022-10-17T16:10:57;24.00;83.20
13488;DHT22;6816;48.506;9.050;2022-10-17T16:14:03;23.90;83.50
13488;DHT22;6816;48.506;9.050;2022-10-17T16:17:04;23.80;82.70
13488;DHT22;6816;48.506;9.050;2022-10-17T16:20:05;23.60;83.70
13488;DHT22;6816;48.506;9.050;2022-10-17T16:23:06;23.40;83.80
13488;DHT22;6816;48.506;9.050;2022-10-17T16:26:07;23.30;84.10
13488;DHT22;6816;48.506;9.050;2022-10-17T16:29:08;23.10;84.30
13488;DHT22;6816;48.506;9.050;2022-10-17T16:32:09;23.00;84.60
13488;DHT22;6816;48.506;9.050;2022-10-17T16:35:21;22.80;85.60
13488;DHT22;6816;48.506;9.050;2022-10-17T16:38:22;22.60;85.00
13488;DHT22;6816;48.506;9.050;2022-10-17T16:41:25;22.50;85.40
13488;DHT22;6816;48.506;9.050;2022-10-17T16:44:25;22.30;85.80
13488;DHT22;6816;48.506;9.050;2022-10-17T16:47:26;22.10;86.30
13488;DHT22;6816;48.506;9.050;2022-10-17T16:50:26;22.00;86.80
13488;DHT22;6816;48.506;9.050;2022-10-17T16:53:27;21.80;87.10
13488;DHT22;6816;48.506;9.050;2022-10-17T16:56:28;21.70;87.50
13488;DHT22;6816;48.506;9.050;2022-10-17T16:59:32;21.60;88.10
13488;DHT22;6816;48.506;9.050;2022-10-17T17:02:32;21.40;88.30
13488;DHT22;6816;48.506;9.050;2022-10-17T17:05:33;21.30;88.70
13488;DHT22;6816;48.506;9.050;2022-10-17T17:08:34;21.20;88.90
13488;DHT22;6816;48.506;9.050;2022-10-17T17:11:37;21.10;89.00
13488;DHT22;6816;48.506;9.050;2022-10-17T17:14:37;21.00;89.10
13488;DHT22;6816;48.506;9.050;2022-10-17T17:17:38;20.90;89.50
13488;DHT22;6816;48.506;9.050;2022-10-17T17:20:39;20.80;89.90
13488;DHT22;6816;48.506;9.050;2022-10-17T17:23:41;20.60;90.00
13488;DHT22;6816;48.506;9.050;2022-10-17T17:26:43;20.50;90.00
13488;DHT22;6816;48.506;9.050;2022-10-17T17:29:43;20.40;90.10
13488;DHT22;6816;48.506;9.050;2022-10-17T17:32:44;20.30;90.30
13488;DHT22;6816;48.506;9.050;2022-10-17T17:35:44;20.20;90.40
13488;DHT22;6816;48.506;9.050;2022-10-17T17:38:46;20.10;90.50
13488;DHT22;6816;48.506;9.050;2022-10-17T17:41:47;20.00;90.50
13488;DHT22;6816;48.506;9.050;2022-10-17T17:44:48;20.00;90.70
13488;DHT22;6816;48.506;9.050;2022-10-17T17:47:49;19.90;90.80
13488;DHT22;6816;48.506;9.050;2022-10-17T17:50:49;19.80;90.90
13488;DHT22;6816;48.506;9.050;2022-10-17T17:53:50;19.70;90.90
13488;DHT22;6816;48.506;9.050;2022-10-17T17:56:53;19.60;91.00
13488;DHT22;6816;48.506;9.050;2022-10-17T17:59:54;19.50;91.10
13488;DHT22;6816;48.506;9.050;2022-10-17T18:02:55;19.40;91.20
13488;DHT22;6816;48.506;9.050;2022-10-17T18:05:56;19.30;91.30
13488;DHT22;6816;48.506;9.050;2022-10-17T18:08:57;19.30;91.40
13488;DHT22;6816;48.506;9.050;2022-10-17T18:11:58;19.10;91.50
13488;DHT22;6816;48.506;9.050;2022-10-17T18:14:59;19.00;91.60
13488;DHT22;6816;48.506;9.050;2022-10-17T18:18:00;19.00;91.70
13488;DHT22;6816;48.506;9.050;2022-10-17T18:21:01;18.90;91.70
13488;DHT22;6816;48.506;9.050;2022-10-17T18:24:01;18.80;92.20
13488;DHT22;6816;48.506;9.050;2022-10-17T18:27:04;18.70;91.90
13488;DHT22;6816;48.506;9.050;2022-10-17T18:30:05;18.60;92.00
13488;DHT22;6816;48.506;9.050;2022-10-17T18:33:06;18.50;92.20
13488;DHT22;6816;48.506;9.050;2022-10-17T18:36:09;18.40;92.70
13488;DHT22;6816;48.506;9.050;2022-10-17T18:39:10;18.30;92.40
13488;DHT22;6816;48.506;9.050;2022-10-17T18:42:10;18.20;92.60
13488;DHT22;6816;48.506;9.050;2022-10-17T18:45:11;18.20;92.80
13488;DHT22;6816;48.506;9.050;2022-10-17T18:48:12;18.10;92.80
13488;DHT22;6816;48.506;9.050;2022-10-17T18:51:14;18.00;93.00
13488;DHT22;6816;48.506;9.050;2022-10-17T18:54:18;18.10;93.20
13488;DHT22;6816;48.506;9.050;2022-10-17T18:57:20;17.90;93.30
13488;DHT22;6816;48.506;9.050;2022-10-17T19:00:20;17.90;93.40
13488;DHT22;6816;48.506;9.050;2022-10-17T19:03:21;17.80;93.40
13488;DHT22;6816;48.506;9.050;2022-10-17T19:06:25;17.80;93.50
13488;DHT22;6816;48.506;9.050;2022-10-17T19:09:26;17.70;93.40
13488;DHT22;6816;48.506;9.050;2022-10-17T19:12:27;17.60;93.50
13488;DHT22;6816;48.506;9.050;2022-10-17T19:15:28;17.60;93.50
13488;DHT22;6816;48.506;9.050;2022-10-17T19:18:28;17.50;93.50
13488;DHT22;6816;48.506;9.050;2022-10-17T19:21:29;17.40;93.60
13488;DHT22;6816;48.506;9.050;2022-10-17T19:24:30;17.40;93.70
13488;DHT22;6816;48.506;9.050;2022-10-17T19:27:30;17.30;93.80
13488;DHT22;6816;48.506;9.050;2022-10-17T19:30:31;17.40;94.00
13488;DHT22;6816;48.506;9.050;2022-10-17T19:33:32;17.20;94.00
13488;DHT22;6816;48.506;9.050;2022-10-17T19:36:34;17.20;94.10
13488;DHT22;6816;48.506;9.050;2022-10-17T19:39:34;17.10;94.10
13488;DHT22;6816;48.506;9.050;2022-10-17T19:42:35;17.00;94.20
13488;DHT22;6816;48.506;9.050;2022-10-17T19:45:36;17.00;94.30
13488;DHT22;6816;48.506;9.050;2022-10-17T19:48:37;16.90;94.40
13488;DHT22;6816;48.506;9.050;2022-10-17T19:51:38;16.90;94.50
13488;DHT22;6816;48.506;9.050;2022-10-17T19:54:38;16.80;94.60
13488;DHT22;6816;48.506;9.050;2022-10-17T19:57:40;16.80;94.70
13488;DHT22;6816;48.506;9.050;2022-10-17T20:00:50;16.70;94.80
13488;DHT22;6816;48.506;9.050;2022-10-17T20:03:52;16.70;94.60
13488;DHT22;6816;48.506;9.050;2022-10-17T20:06:53;16.60;94.80
13488;DHT22;6816;48.506;9.050;2022-10-17T20:09:59;16.60;94.90
13488;DHT22;6816;48.506;9.050;2022-10-17T20:13:00;16.50;95.00
13488;DHT22;6816;48.506;9.050;2022-10-17T20:16:01;16.50;95.10
13488;DHT22;6816;48.506;9.050;2022-10-17T20:19:08;16.40;95.20
13488;DHT22;6816;48.506;9.050;2022-10-17T20:22:09;16.40;95.20
13488;DHT22;6816;48.506;9.050;2022-10-17T20:25:10;16.30;95.30
13488;DHT22;6816;48.506;9.050;2022-10-17T20:28:10;16.30;95.40
13488;DHT22;6816;48.506;9.050;2022-10-17T20:31:12;16.30;95.50
13488;DHT22;6816;48.506;9.050;2022-10-17T20:34:14;16.20;95.80
13488;DHT22;6816;48.506;9.050;2022-10-17T20:37:15;16.20;95.70
13488;DHT22;6816;48.506;9.050;2022-10-17T20:40:16;16.10;95.70
13488;DHT22;6816;48.506;9.050;2022-10-17T20:43:16;16.10;95.70
13488;DHT22;6816;48.506;9.050;2022-10-17T20:46:18;16.10;95.80
13488;DHT22;6816;48.506;9.050;2022-10-17T20:49:19;16.00;96.20
13488;DHT22;6816;48.506;9.050;2022-10-17T20:52:20;16.00;95.80
13488;DHT22;6816;48.506;9.050;2022-10-17T20:55:21;16.00;96.10
13488;DHT22;6816;48.506;9.050;2022-10-17T20:58:22;15.90;95.80
13488;DHT22;6816;48.506;9.050;2022-10-17T21:01:23;15.80;95.70
13488;DHT22;6816;48.506;9.050;2022-10-17T21:04:24;15.80;95.80